Portada
METAR-TAF:

METAR-TAF

Aeroports :

Phrae, Tailàndia

latitud: 18-10N, longitud: 100-10E, altitud: 161 m

Observació

L'informe es va fer fa 12 hores i 55 minuts, a les 11:00 UTC
Vent 2 kt amb direcció variable
Temperatura 28°C
Humitat 55%
Pressió 1012 hPa
Visibilitat: 4000 m
calitja

METAR: VTCP 201100Z VRB02KT 4000 HZ NSC 28/18 Q1012 NOSIG

Hora: 06:55 (23:55 UTC)

Pronòstic

L'informe es va fer fa 55 minuts, a les 23:00 UTC
Pronòstic vàlid del 21 a les 00 UTC al 21 a les 24 UTC
Vent 5 kt del Sud/Sud-Oest
Visibilitat: 1000 m
Escasses núvols a una alçada de 2500 ft
boirina
Evolucionant progressivament
l' 21 a les 04 UTC al 21 a les 06 UTC
Visibilitat: 5000 m
calitja

TAF: VTCP 202300Z 2100/2124 20005KT 1000 BR FEW025 BECMG 2104/2106 5000 HZ

Observacions i pronòstics meteorològics de més de 4000 aeroports (METAR i TAF).

Les estacions disponibles són els punts grocs i vermells al mapa.

Posi el ratolí al punt desitjat per veure el nom de l'estació.

Feu clic per veure les observacions i els pronòstics meteorològics.

Per canviar el mapa: feu clic els botons verds amb una creu de color negre per apropar; al botó verd amb un guió per allunyar la imatge; o en les fletxes verdes per a mapes adjacents.


METAR-TAF: